Time;durP1;ratioP1;P1;durP2;ratioP2;P2;SDS_P1;SDS_P2;PMS_P1;PMS_P2;Temp;Humidity;BMP_temperature;BMP_pressure;BME280_temperature;BME280_humidity;BME280_pressure;Samples;Min_cycle;Max_cycle;Signal;HPM_P1;HPM_P2
2023/04/10 00:00:37;;;;;;;9.55;6.63;;;21.10;32.90;;;;;;5072590;28;20045;-61
2023/04/10 00:03:04;;;;;;;8.07;6.88;;;21.20;33.00;;;;;;5073032;28;20106;-62
2023/04/10 00:05:32;;;;;;;9.85;7.03;;;21.20;33.00;;;;;;5072913;28;20045;-61
2023/04/10 00:07:59;;;;;;;9.45;7.10;;;21.10;33.00;;;;;;5072539;28;20540;-61
2023/04/10 00:10:29;;;;;;;10.48;6.97;;;21.10;33.00;;;;;;5072504;28;20512;-61
2023/04/10 00:12:57;;;;;;;9.52;6.85;;;21.10;32.90;;;;;;5075582;28;20048;-61
2023/04/10 00:15:25;;;;;;;9.25;6.65;;;21.10;33.00;;;;;;5076376;28;20489;-61
2023/04/10 00:17:54;;;;;;;8.63;6.40;;;21.10;32.90;;;;;;5076288;28;20054;-61
2023/04/10 00:20:22;;;;;;;8.50;6.40;;;21.10;32.90;;;;;;5076211;28;20045;-61
2023/04/10 00:22:49;;;;;;;8.45;6.20;;;21.10;32.90;;;;;;5076287;28;20556;-61
2023/04/10 00:25:16;;;;;;;7.18;6.13;;;21.10;33.50;;;;;;5076052;28;20078;-61
2023/04/10 00:27:43;;;;;;;7.95;6.75;;;21.10;33.00;;;;;;5076035;28;20449;-61
2023/04/10 00:30:11;;;;;;;9.38;6.72;;;21.10;32.90;;;;;;5075239;28;20055;-61
2023/04/10 00:32:38;;;;;;;8.43;6.60;;;21.10;33.00;;;;;;5075987;28;20052;-61
2023/04/10 00:35:07;;;;;;;7.88;6.15;;;21.10;33.00;;;;;;5076226;28;20071;-61
2023/04/10 00:37:34;;;;;;;7.97;6.03;;;21.10;33.00;;;;;;5076301;28;20051;-61
2023/04/10 00:40:02;;;;;;;7.55;6.45;;;21.10;33.00;;;;;;5076166;28;20052;-61
2023/04/10 00:42:29;;;;;;;7.85;6.10;;;21.10;33.00;;;;;;5076311;28;20049;-60
2023/04/10 00:44:57;;;;;;;6.82;5.50;;;21.10;33.00;;;;;;5075848;28;20484;-61
2023/04/10 00:47:25;;;;;;;7.30;5.78;;;21.10;33.00;;;;;;5075762;28;20095;-61
2023/04/10 00:49:52;;;;;;;7.20;5.95;;;21.10;33.00;;;;;;5074829;28;20080;-61
2023/04/10 00:52:19;;;;;;;8.00;6.47;;;21.10;33.00;;;;;;5075767;28;20080;-61
2023/04/10 00:54:47;;;;;;;7.10;5.63;;;21.10;33.00;;;;;;5075939;28;20053;-61
2023/04/10 00:57:14;;;;;;;8.50;5.93;;;21.00;32.90;;;;;;5075689;28;20049;-61
2023/04/10 00:59:41;;;;;;;8.00;6.15;;;21.10;33.00;;;;;;5075314;28;20060;-61
2023/04/10 01:02:11;;;;;;;8.70;6.25;;;21.10;33.00;;;;;;5075382;28;20105;-61
2023/04/10 01:04:39;;;;;;;8.32;5.90;;;21.00;33.00;;;;;;5075895;28;20060;-61
2023/04/10 01:07:30;;;;;;;8.40;5.78;;;21.00;32.90;;;;;;5075843;28;20131;-61
2023/04/10 01:10:12;;;;;;;6.45;5.43;;;21.10;33.00;;;;;;5075656;28;20056;-61
2023/04/10 01:13:05;;;;;;;6.47;5.18;;;21.10;33.00;;;;;;5075000;28;20044;-61
2023/04/10 01:15:46;;;;;;;7.05;5.38;;;21.10;33.00;;;;;;5075320;28;20048;-61
2023/04/10 01:18:30;;;;;;;6.88;5.22;;;21.00;32.90;;;;;;5074389;28;20048;-61
2023/04/10 01:21:01;;;;;;;7.82;5.40;;;21.10;32.90;;;;;;5075232;28;20060;-61
2023/04/10 01:23:46;;;;;;;7.43;5.30;;;21.10;32.90;;;;;;5074109;28;20131;-61
2023/04/10 01:26:18;;;;;;;6.32;5.20;;;21.10;32.90;;;;;;5075013;28;20135;-61
2023/04/10 01:29:07;;;;;;;7.03;5.72;;;21.10;32.90;;;;;;5075076;28;20053;-61
2023/04/10 01:31:50;;;;;;;6.57;5.55;;;21.00;32.90;;;;;;5075352;28;20071;-61
2023/04/10 01:34:25;;;;;;;6.00;5.05;;;21.00;32.90;;;;;;5075272;28;20048;-61
2023/04/10 01:37:00;;;;;;;5.53;4.82;;;21.00;32.90;;;;;;5075188;28;20083;-61
2023/04/10 01:39:30;;;;;;;6.70;5.68;;;21.00;32.90;;;;;;5074971;28;20052;-61
2023/04/10 01:41:59;;;;;;;6.60;5.22;;;21.00;32.90;;;;;;5075038;28;20055;-61
2023/04/10 01:44:30;;;;;;;6.38;4.93;;;21.00;32.90;;;;;;5075189;28;20048;-61
2023/04/10 01:46:59;;;;;;;6.45;5.05;;;21.00;32.90;;;;;;5075479;28;20075;-61
2023/04/10 01:49:29;;;;;;;5.15;4.40;;;21.00;32.90;;;;;;5074893;28;20404;-61
2023/04/10 01:51:59;;;;;;;5.97;5.03;;;21.00;32.90;;;;;;5073662;28;20044;-61
2023/04/10 01:54:31;;;;;;;5.15;4.22;;;21.00;32.90;;;;;;5074617;28;20580;-61
2023/04/10 01:57:01;;;;;;;4.65;3.88;;;21.00;32.90;;;;;;5073339;28;20048;-61
2023/04/10 01:59:28;;;;;;;6.22;4.82;;;21.00;32.90;;;;;;5074665;28;20055;-61
2023/04/10 02:01:57;;;;;;;5.57;4.70;;;21.00;32.90;;;;;;5074296;28;20052;-61
2023/04/10 02:04:25;;;;;;;5.43;4.72;;;20.90;32.80;;;;;;5074754;28;20123;-61
2023/04/10 02:07:12;;;;;;;5.82;4.60;;;21.00;32.90;;;;;;5074648;28;20056;-61
2023/04/10 02:09:59;;;;;;;5.13;4.60;;;21.00;32.90;;;;;;5074258;28;20048;-61
2023/04/10 02:12:30;;;;;;;6.10;4.32;;;20.90;32.80;;;;;;5074513;28;20048;-61
2023/04/10 02:15:01;;;;;;;4.80;4.22;;;20.90;32.80;;;;;;5074505;28;20082;-61
2023/04/10 02:17:30;;;;;;;4.65;3.83;;;20.90;32.80;;;;;;5074340;28;20132;-61
2023/04/10 02:19:59;;;;;;;5.70;3.95;;;20.90;32.80;;;;;;5074273;28;20053;-61
2023/04/10 02:22:27;;;;;;;4.95;4.32;;;20.90;32.80;;;;;;5091020;28;20059;-61
2023/04/10 02:24:55;;;;;;;6.22;4.28;;;20.90;32.80;;;;;;5094159;28;20052;-61
2023/04/10 02:27:31;;;;;;;5.63;4.22;;;20.90;32.80;;;;;;5094163;28;20048;-61
2023/04/10 02:29:58;;;;;;;4.50;4.03;;;20.90;32.80;;;;;;5094391;28;20066;-61
2023/04/10 02:32:26;;;;;;;4.82;4.30;;;20.90;32.80;;;;;;5094038;28;20108;-61
2023/04/10 02:34:53;;;;;;;4.13;3.72;;;20.80;32.80;;;;;;5093980;28;20098;-61
2023/04/10 02:37:20;;;;;;;4.68;4.07;;;20.90;32.80;;;;;;5094265;28;20070;-62
2023/04/10 02:39:48;;;;;;;3.95;3.55;;;20.90;32.80;;;;;;5075932;28;20131;-61
2023/04/10 02:42:15;;;;;;;4.78;3.78;;;20.90;32.80;;;;;;5094351;28;20066;-61
2023/04/10 02:44:42;;;;;;;4.72;3.78;;;20.90;32.80;;;;;;5094084;28;20052;-61
2023/04/10 02:47:09;;;;;;;4.57;3.72;;;20.90;32.80;;;;;;5093876;28;20055;-61
2023/04/10 02:49:36;;;;;;;4.63;3.92;;;20.90;32.90;;;;;;5093746;28;20214;-61
2023/04/10 02:52:04;;;;;;;3.75;3.35;;;20.90;32.80;;;;;;5093629;28;20052;-61
2023/04/10 02:54:31;;;;;;;4.07;3.65;;;20.90;32.90;;;;;;5094037;28;20062;-61
2023/04/10 02:56:59;;;;;;;4.70;3.95;;;20.90;32.90;;;;;;5093885;28;20131;-61
2023/04/10 02:59:26;;;;;;;5.53;3.72;;;20.90;32.80;;;;;;5093544;28;20051;-61
2023/04/10 03:01:53;;;;;;;4.10;3.65;;;20.90;32.90;;;;;;5093777;28;20059;-61
2023/04/10 03:04:21;;;;;;;4.97;4.10;;;20.90;32.90;;;;;;5093659;28;20071;-61
2023/04/10 03:06:49;;;;;;;4.55;3.95;;;20.90;32.90;;;;;;5093717;28;20058;-61
2023/04/10 03:09:16;;;;;;;4.32;3.65;;;20.80;32.80;;;;;;5093463;28;20484;-61
2023/04/10 03:11:43;;;;;;;4.45;3.78;;;20.90;32.90;;;;;;5093329;28;20130;-61
2023/04/10 03:14:10;;;;;;;4.07;3.30;;;20.90;32.80;;;;;;5093367;28;20054;-61
2023/04/10 03:16:37;;;;;;;4.68;3.92;;;20.90;32.80;;;;;;5093660;28;20123;-61
2023/04/10 03:19:05;;;;;;;4.97;4.30;;;20.90;32.80;;;;;;5093388;28;20091;-61
2023/04/10 03:21:32;;;;;;;3.92;3.55;;;20.90;32.80;;;;;;5093485;28;20122;-61
2023/04/10 03:23:59;;;;;;;4.88;3.75;;;20.90;32.80;;;;;;5093589;28;20051;-61
2023/04/10 03:26:27;;;;;;;4.07;3.30;;;20.90;32.80;;;;;;5093184;28;20040;-63
2023/04/10 03:28:54;;;;;;;4.13;3.50;;;20.90;32.70;;;;;;5093377;28;20048;-61
2023/04/10 03:31:21;;;;;;;3.53;3.00;;;20.90;32.70;;;;;;5093530;28;20040;-61
2023/04/10 03:33:49;;;;;;;4.65;3.40;;;20.90;32.80;;;;;;5093113;28;20492;-61
2023/04/10 03:36:16;;;;;;;3.72;2.97;;;20.90;32.80;;;;;;5092945;28;20079;-61
2023/04/10 03:38:43;;;;;;;3.65;2.95;;;20.90;32.70;;;;;;5093039;28;20484;-61
2023/04/10 03:41:10;;;;;;;3.50;3.20;;;20.90;32.70;;;;;;5093118;28;20052;-61
2023/04/10 03:43:39;;;;;;;4.03;3.33;;;20.90;32.70;;;;;;5093034;28;20044;-61
2023/04/10 03:46:06;;;;;;;3.70;3.40;;;20.90;32.70;;;;;;5093017;28;20066;-61
2023/04/10 03:48:33;;;;;;;4.18;3.40;;;20.90;32.70;;;;;;5095739;28;20051;-61
2023/04/10 03:51:01;;;;;;;4.13;3.40;;;20.80;32.70;;;;;;5075526;28;20143;-61
2023/04/10 03:53:28;;;;;;;3.80;3.40;;;20.90;32.70;;;;;;5076908;28;20048;-61
2023/04/10 03:55:56;;;;;;;3.55;3.25;;;20.80;32.60;;;;;;5075550;28;20488;-61
2023/04/10 03:58:23;;;;;;;3.47;3.17;;;20.80;32.70;;;;;;5076732;28;20049;-61
2023/04/10 04:00:50;;;;;;;4.00;2.78;;;20.80;32.60;;;;;;5076665;28;20056;-61
2023/04/10 04:03:17;;;;;;;2.85;2.65;;;20.80;32.70;;;;;;5077099;28;20044;-61
2023/04/10 04:05:45;;;;;;;3.00;2.63;;;20.80;32.60;;;;;;5076465;28;20053;-61
2023/04/10 04:08:12;;;;;;;3.28;2.90;;;20.80;32.70;;;;;;5076510;28;20477;-61
2023/04/10 04:10:39;;;;;;;3.17;2.78;;;20.80;32.70;;;;;;5076578;28;20056;-61
2023/04/10 04:13:06;;;;;;;3.85;3.38;;;20.80;32.70;;;;;;5075665;28;20131;-61
2023/04/10 04:15:34;;;;;;;2.85;2.63;;;20.80;32.70;;;;;;5076730;28;20132;-61
2023/04/10 04:18:01;;;;;;;4.07;3.10;;;20.80;32.70;;;;;;5076322;28;20040;-61
2023/04/10 04:20:29;;;;;;;3.55;2.88;;;20.80;32.70;;;;;;5095425;28;20049;-61
2023/04/10 04:22:56;;;;;;;3.17;2.88;;;20.80;32.70;;;;;;5097077;28;20076;-61
2023/04/10 04:25:23;;;;;;;3.67;2.97;;;20.80;32.70;;;;;;5096907;28;20083;-61
2023/04/10 04:27:50;;;;;;;3.85;3.45;;;20.80;32.60;;;;;;5096372;28;20048;-61
2023/04/10 04:30:17;;;;;;;4.15;3.13;;;20.80;32.60;;;;;;5096739;28;20471;-61
2023/04/10 04:32:45;;;;;;;3.88;3.28;;;20.80;32.60;;;;;;5096792;28;20403;-61
2023/04/10 04:35:12;;;;;;;4.75;3.40;;;20.80;32.60;;;;;;5096536;28;20172;-60
2023/04/10 04:37:39;;;;;;;4.97;3.35;;;20.80;32.50;;;;;;5096621;28;20056;-61
2023/04/10 04:40:07;;;;;;;4.15;3.55;;;20.80;32.30;;;;;;5096230;28;20551;-61
2023/04/10 04:42:34;;;;;;;4.05;3.47;;;20.80;32.20;;;;;;5096278;28;20048;-60
2023/04/10 04:45:02;;;;;;;5.47;3.67;;;20.80;32.30;;;;;;5096200;28;20048;-61
2023/04/10 04:47:29;;;;;;;3.30;3.00;;;20.70;32.30;;;;;;5088414;28;20047;-61
2023/04/10 04:49:56;;;;;;;4.43;3.78;;;20.70;32.30;;;;;;5075230;28;20505;-61
2023/04/10 04:52:24;;;;;;;3.63;3.28;;;20.70;32.30;;;;;;5076171;28;20056;-61
2023/04/10 04:54:51;;;;;;;4.60;3.67;;;20.70;32.30;;;;;;5075794;28;20132;-61
2023/04/10 04:57:18;;;;;;;3.53;3.22;;;20.70;32.20;;;;;;5074591;28;20044;-60
2023/04/10 04:59:45;;;;;;;3.83;3.42;;;20.70;32.20;;;;;;5075602;28;20049;-61
2023/04/10 05:02:12;;;;;;;4.15;3.20;;;20.80;32.20;;;;;;5075913;28;20049;-61
2023/04/10 05:04:40;;;;;;;4.43;3.90;;;20.80;32.20;;;;;;5074383;28;20139;-61
2023/04/10 05:07:08;;;;;;;4.65;3.47;;;20.80;32.10;;;;;;5076880;28;20400;-61
2023/04/10 05:09:35;;;;;;;4.93;3.83;;;20.90;32.10;;;;;;5075438;28;20056;-61
2023/04/10 05:12:02;;;;;;;4.20;3.80;;;20.90;32.00;;;;;;5075254;28;20471;-61
2023/04/10 05:14:29;;;;;;;4.30;3.90;;;20.90;32.00;;;;;;5075742;28;20053;-60
2023/04/10 05:16:56;;;;;;;4.43;3.72;;;21.00;32.00;;;;;;5075318;28;20508;-61
2023/04/10 05:19:24;;;;;;;3.95;3.10;;;21.00;31.90;;;;;;5075303;28;20132;-60
2023/04/10 05:21:52;;;;;;;5.28;4.32;;;21.00;31.80;;;;;;5075146;28;20040;-61
2023/04/10 05:24:19;;;;;;;4.68;4.10;;;21.10;31.70;;;;;;5075689;28;20056;-61
2023/04/10 05:26:46;;;;;;;5.03;4.20;;;21.10;31.60;;;;;;5075369;28;20444;-61
2023/04/10 05:29:13;;;;;;;6.22;4.25;;;21.20;31.60;;;;;;5075096;28;20063;-61
2023/04/10 05:31:40;;;;;;;5.40;4.03;;;21.20;31.50;;;;;;5074988;28;20049;-60
2023/04/10 05:34:07;;;;;;;4.80;4.30;;;21.30;31.50;;;;;;5075021;28;20063;-61
2023/04/10 05:36:35;;;;;;;6.80;4.57;;;21.30;31.40;;;;;;5075241;28;20417;-61
2023/04/10 05:39:02;;;;;;;4.60;4.18;;;21.40;31.40;;;;;;5074094;28;20173;-61
2023/04/10 05:41:29;;;;;;;5.57;4.40;;;21.40;31.30;;;;;;5074829;28;20076;-60
2023/04/10 05:43:56;;;;;;;6.15;4.60;;;21.50;31.20;;;;;;5074833;28;20048;-61
2023/04/10 05:46:24;;;;;;;6.15;4.88;;;21.50;31.10;;;;;;5074757;28;20048;-60
2023/04/10 05:48:52;;;;;;;5.90;4.80;;;21.50;31.10;;;;;;5074571;28;20048;-61
2023/04/10 05:51:19;;;;;;;5.05;4.28;;;21.60;31.00;;;;;;5074622;28;20106;-61
2023/04/10 05:53:47;;;;;;;6.13;4.97;;;21.60;31.00;;;;;;5074624;28;20044;-60
2023/04/10 05:56:14;;;;;;;5.18;4.68;;;21.70;31.00;;;;;;5074505;28;20059;-59
2023/04/10 05:58:41;;;;;;;6.18;4.88;;;21.70;30.90;;;;;;5074389;28;20055;-59
2023/04/10 06:01:10;;;;;;;5.63;4.57;;;21.70;30.80;;;;;;5074396;28;20087;-61
2023/04/10 06:03:37;;;;;;;5.53;4.85;;;21.80;30.80;;;;;;5074452;28;20485;-61
2023/04/10 06:06:06;;;;;;;6.10;5.00;;;21.90;30.80;;;;;;5074310;28;20044;-61
2023/04/10 06:08:33;;;;;;;5.05;4.45;;;21.90;30.70;;;;;;5073077;28;20044;-60
2023/04/10 06:11:00;;;;;;;5.28;4.72;;;21.90;30.70;;;;;;5073669;28;20134;-61
2023/04/10 06:13:27;;;;;;;5.20;4.70;;;22.00;30.60;;;;;;5074249;28;20489;-60
2023/04/10 06:15:55;;;;;;;5.53;5.03;;;22.00;30.60;;;;;;5074240;28;20100;-61
2023/04/10 06:18:22;;;;;;;6.13;5.07;;;22.10;30.60;;;;;;5074095;28;20087;-60
2023/04/10 06:20:49;;;;;;;6.63;5.35;;;22.10;30.60;;;;;;5082419;28;20404;-60
2023/04/10 06:23:16;;;;;;;6.25;4.82;;;22.10;30.50;;;;;;5094742;28;20048;-60
2023/04/10 06:25:43;;;;;;;6.72;5.13;;;22.10;31.00;;;;;;5094107;28;20150;-60
2023/04/10 06:28:10;;;;;;;6.28;5.00;;;22.20;30.50;;;;;;5094190;28;20097;-60
2023/04/10 06:30:38;;;;;;;5.80;5.00;;;22.20;30.40;;;;;;5094077;28;20457;-60
2023/04/10 06:33:05;;;;;;;5.70;4.80;;;22.30;30.40;;;;;;5093757;28;20544;-60
2023/04/10 06:35:33;;;;;;;6.47;5.22;;;22.30;30.40;;;;;;5093906;28;20090;-60
2023/04/10 06:38:00;;;;;;;5.05;4.43;;;22.30;30.30;;;;;;5093947;28;20064;-61
2023/04/10 06:40:28;;;;;;;6.45;5.10;;;22.30;30.90;;;;;;5093885;28;20050;-60
2023/04/10 06:42:55;;;;;;;7.07;5.57;;;22.30;30.30;;;;;;5093499;28;20052;-60
2023/04/10 06:45:23;;;;;;;5.28;4.28;;;22.40;30.30;;;;;;5093384;28;20044;-60
2023/04/10 06:47:50;;;;;;;5.57;4.60;;;22.40;30.40;;;;;;5094147;28;20047;-60
2023/04/10 06:50:18;;;;;;;6.32;5.00;;;22.40;30.30;;;;;;5093707;28;20055;-60
2023/04/10 06:52:45;;;;;;;6.38;4.75;;;22.50;30.40;;;;;;5093695;28;20068;-60
2023/04/10 06:55:12;;;;;;;5.53;4.93;;;22.50;30.30;;;;;;5093778;28;20480;-60
2023/04/10 06:57:40;;;;;;;5.78;5.18;;;22.50;30.30;;;;;;5093824;28;20062;-60
2023/04/10 07:00:09;;;;;;;7.78;5.50;;;22.60;30.90;;;;;;5093548;28;20567;-60
2023/04/10 07:02:36;;;;;;;5.95;4.93;;;22.60;30.40;;;;;;5093873;28;20411;-60
2023/04/10 07:05:04;;;;;;;7.03;5.50;;;22.60;30.40;;;;;;5093690;28;20048;-61
2023/04/10 07:07:31;;;;;;;7.03;5.25;;;22.60;30.30;;;;;;5093716;28;20051;-60
2023/04/10 07:09:59;;;;;;;6.00;4.93;;;22.70;30.40;;;;;;5093407;28;20500;-60
2023/04/10 07:12:26;;;;;;;5.65;4.85;;;22.70;30.40;;;;;;5093439;28;20054;-60
2023/04/10 07:14:53;;;;;;;5.20;4.70;;;22.70;30.40;;;;;;5093351;28;20044;-60
2023/04/10 07:17:21;;;;;;;6.30;4.85;;;22.70;30.30;;;;;;5093356;28;20550;-60
2023/04/10 07:19:48;;;;;;;5.93;5.18;;;22.70;30.30;;;;;;5093010;28;20044;-60
2023/04/10 07:22:15;;;;;;;5.72;5.07;;;22.80;30.40;;;;;;5092404;28;20055;-61
2023/04/10 07:24:43;;;;;;;6.32;5.10;;;22.80;30.40;;;;;;5093657;28;20048;-60
2023/04/10 07:27:11;;;;;;;6.38;5.43;;;22.80;30.40;;;;;;5093223;28;20048;-61
2023/04/10 07:29:38;;;;;;;5.78;5.10;;;22.80;30.40;;;;;;5093147;28;20048;-60
2023/04/10 07:32:06;;;;;;;6.30;5.47;;;22.80;30.30;;;;;;5092707;28;20075;-60
2023/04/10 07:34:34;;;;;;;6.72;5.50;;;22.90;30.40;;;;;;5093576;28;20044;-60
2023/04/10 07:37:01;;;;;;;6.38;5.07;;;22.90;30.30;;;;;;5093068;28;20056;-60
2023/04/10 07:39:28;;;;;;;6.47;5.47;;;22.90;30.30;;;;;;5093021;28;20058;-60
2023/04/10 07:41:55;;;;;;;6.03;4.60;;;23.00;30.30;;;;;;5092993;28;20047;-60
2023/04/10 07:44:22;;;;;;;5.38;4.60;;;23.00;30.30;;;;;;5093483;28;20404;-60
2023/04/10 07:46:51;;;;;;;6.85;4.85;;;23.00;30.30;;;;;;5093268;28;20523;-60
2023/04/10 07:49:18;;;;;;;5.32;4.50;;;23.00;30.30;;;;;;5092866;28;20044;-60
2023/04/10 07:51:45;;;;;;;6.10;5.03;;;23.00;30.30;;;;;;5092491;28;20093;-60
2023/04/10 07:54:12;;;;;;;5.63;4.70;;;23.10;30.30;;;;;;5093340;28;20123;-60
2023/04/10 07:56:39;;;;;;;5.30;4.80;;;23.10;30.30;;;;;;5093265;28;20051;-60
2023/04/10 07:59:07;;;;;;;5.80;5.10;;;23.10;30.30;;;;;;5092983;28;20048;-60
2023/04/10 08:01:34;;;;;;;6.50;4.95;;;23.10;30.30;;;;;;5092912;28;20515;-60
2023/04/10 08:04:02;;;;;;;4.85;4.32;;;23.10;30.30;;;;;;5091995;28;20060;-60
2023/04/10 08:06:31;;;;;;;;;;;23.20;30.30;;;;;;5092081;28;20047;-61
2023/04/10 08:09:00;;;;;;;5.13;4.63;;;23.20;30.30;;;;;;5092926;28;19926;-60
2023/04/10 08:11:33;;;;;;;6.38;5.07;;;23.20;30.30;;;;;;5093162;28;20048;-60
2023/04/10 08:14:04;;;;;;;4.88;4.40;;;23.20;30.30;;;;;;5092757;28;20139;-60
2023/04/10 08:16:33;;;;;;;6.25;5.03;;;23.30;30.40;;;;;;5092876;28;20083;-60
2023/04/10 08:19:01;;;;;;;5.65;4.90;;;23.30;30.40;;;;;;5092808;28;20129;-60
2023/04/10 08:21:30;;;;;;;6.32;5.03;;;23.30;30.40;;;;;;5091501;28;20066;-60
2023/04/10 08:24:00;;;;;;;6.53;4.72;;;23.30;30.40;;;;;;5092551;28;20113;-60
2023/04/10 08:26:28;;;;;;;5.20;4.50;;;23.30;30.40;;;;;;5092717;28;20044;-60
2023/04/10 08:28:57;;;;;;;6.03;4.80;;;23.40;30.40;;;;;;5093043;28;20048;-60
2023/04/10 08:31:25;;;;;;;4.30;3.83;;;23.40;30.50;;;;;;5092918;28;20052;-61
2023/04/10 08:33:53;;;;;;;5.85;4.95;;;23.40;30.40;;;;;;5094930;28;20066;-60
2023/04/10 08:36:23;;;;;;;5.35;4.70;;;23.40;30.40;;;;;;5096547;28;20059;-60
2023/04/10 08:38:50;;;;;;;;;;;23.40;30.40;;;;;;5096351;28;20055;-60
2023/04/10 08:41:19;;;;;;;5.97;4.55;;;23.40;30.40;;;;;;5096361;28;20423;-60
2023/04/10 08:43:48;;;;;;;5.72;5.22;;;23.40;30.30;;;;;;5096259;28;20074;-60
2023/04/10 08:46:15;;;;;;;4.90;4.40;;;23.50;30.30;;;;;;5096391;28;20055;-60
2023/04/10 08:48:58;;;;;;;6.15;5.38;;;23.50;30.30;;;;;;5096513;28;20447;-60
2023/04/10 08:51:47;;;;;;;5.70;4.75;;;23.50;30.30;;;;;;5096274;28;20135;-61
2023/04/10 08:54:24;;;;;;;6.73;5.37;;;23.50;30.30;;;;;;5096225;28;20123;-60
2023/04/10 08:56:54;;;;;;;5.15;4.65;;;23.60;30.30;;;;;;5095930;28;20055;-60
2023/04/10 08:59:22;;;;;;;5.25;4.75;;;23.60;30.30;;;;;;5095518;28;20044;-60
2023/04/10 09:01:49;;;;;;;5.65;4.80;;;23.60;30.30;;;;;;5096005;28;20054;-60
2023/04/10 09:04:16;;;;;;;6.72;4.90;;;23.60;30.20;;;;;;5095805;28;20093;-60
2023/04/10 09:06:44;;;;;;;5.63;4.95;;;23.60;30.20;;;;;;5095682;28;20076;-60
2023/04/10 09:09:11;;;;;;;5.28;4.63;;;23.70;30.20;;;;;;5096119;28;20405;-60
2023/04/10 09:11:59;;;;;;;5.47;4.97;;;23.70;30.20;;;;;;5093992;28;20527;-61
2023/04/10 09:14:28;;;;;;;5.05;4.55;;;23.70;30.10;;;;;;5095738;28;20071;-60
2023/04/10 09:17:15;;;;;;;5.53;4.78;;;23.70;30.10;;;;;;5095459;28;20135;-60
2023/04/10 09:19:44;;;;;;;5.25;4.63;;;23.70;30.00;;;;;;5095650;28;20048;-60
2023/04/10 09:22:12;;;;;;;5.72;4.80;;;23.80;30.00;;;;;;5095432;28;20048;-61
2023/04/10 09:24:43;;;;;;;6.22;4.75;;;23.80;30.10;;;;;;5095889;28;20048;-61
2023/04/10 09:27:25;;;;;;;5.75;4.55;;;23.90;30.00;;;;;;5095361;28;20685;-60
2023/04/10 09:29:52;;;;;;;6.60;4.88;;;23.90;30.00;;;;;;5095521;28;20471;-61
2023/04/10 09:32:39;;;;;;;4.93;4.43;;;23.90;30.00;;;;;;5095644;28;20043;-60
2023/04/10 09:35:08;;;;;;;4.97;4.25;;;23.90;30.00;;;;;;5095561;28;20127;-60
2023/04/10 09:37:36;;;;;;;4.93;4.28;;;23.90;30.00;;;;;;5095067;28;20044;-61
2023/04/10 09:40:04;;;;;;;5.43;4.47;;;23.90;30.00;;;;;;5095116;28;20087;-61
2023/04/10 09:42:36;;;;;;;4.65;4.25;;;24.00;30.00;;;;;;5095114;28;20076;-61
2023/04/10 09:45:04;;;;;;;5.65;4.75;;;24.00;30.00;;;;;;5093252;28;20055;-60
2023/04/10 09:47:32;;;;;;;6.70;5.10;;;24.00;29.90;;;;;;5095227;28;20050;-61
2023/04/10 09:49:59;;;;;;;5.70;4.80;;;24.00;30.00;;;;;;5095106;28;20059;-60
2023/04/10 09:52:29;;;;;;;5.18;4.68;;;24.00;30.00;;;;;;5094880;28;20044;-60
2023/04/10 09:54:58;;;;;;;5.28;4.78;;;24.10;30.00;;;;;;5094894;28;20043;-61
2023/04/10 09:57:28;;;;;;;5.72;4.50;;;24.10;30.00;;;;;;5093913;28;20134;-60
2023/04/10 09:59:58;;;;;;;4.45;4.05;;;24.10;30.00;;;;;;5076820;28;20048;-60
2023/04/10 10:02:28;;;;;;;4.90;4.45;;;24.10;30.00;;;;;;5094971;28;20408;-60
2023/04/10 10:05:01;;;;;;;5.68;4.80;;;24.10;29.90;;;;;;5094721;28;20044;-60
2023/04/10 10:07:29;;;;;;;5.18;4.60;;;24.10;29.90;;;;;;5094930;28;20054;-60
2023/04/10 10:09:57;;;;;;;6.35;4.97;;;24.10;29.90;;;;;;5092839;28;20104;-60
2023/04/10 10:12:46;;;;;;;5.82;4.82;;;24.20;29.90;;;;;;5094035;28;20048;-60
2023/04/10 10:15:36;;;;;;;5.32;4.65;;;24.20;29.90;;;;;;5093580;28;20044;-60
2023/04/10 10:18:16;;;;;;;7.33;5.10;;;24.10;29.80;;;;;;5094784;28;20055;-60
2023/04/10 10:20:44;;;;;;;5.57;4.80;;;24.10;29.90;;;;;;5094244;28;20277;-60
2023/04/10 10:23:14;;;;;;;5.10;4.22;;;24.10;29.80;;;;;;5093925;28;20492;-60
2023/04/10 10:25:43;;;;;;;5.88;5.25;;;24.20;29.80;;;;;;5082182;28;20049;-61
2023/04/10 10:28:12;;;;;;;4.90;4.15;;;24.20;29.80;;;;;;5074056;28;20139;-61
2023/04/10 10:30:41;;;;;;;5.47;4.85;;;24.20;29.80;;;;;;5073832;28;20524;-61
2023/04/10 10:33:12;;;;;;;5.57;4.70;;;24.30;29.70;;;;;;5074249;28;20041;-61
2023/04/10 10:35:40;;;;;;;6.70;5.45;;;24.30;29.70;;;;;;5073756;28;20052;-61
2023/04/10 10:38:08;;;;;;;4.78;4.28;;;24.30;29.60;;;;;;5073608;28;20045;-60
2023/04/10 10:41:05;;;;;;;5.43;4.30;;;24.40;29.50;;;;;;5074044;28;20058;-60
2023/04/10 10:44:01;;;;;;;5.32;4.82;;;24.40;29.50;;;;;;5073991;28;20044;-60
2023/04/10 10:46:47;;;;;;;5.63;5.00;;;24.40;29.50;;;;;;5073596;28;20044;-60
2023/04/10 10:49:15;;;;;;;4.85;4.40;;;24.40;29.50;;;;;;5073604;28;20386;-61
2023/04/10 10:51:50;;;;;;;5.40;4.28;;;24.40;29.50;;;;;;5073304;28;20518;-61
2023/04/10 10:54:30;;;;;;;6.03;5.10;;;24.40;29.50;;;;;;5073576;28;20072;-60
2023/04/10 10:56:58;;;;;;;4.88;4.35;;;24.40;29.50;;;;;;5073610;28;20044;-60
2023/04/10 10:59:56;;;;;;;6.45;4.97;;;24.40;29.50;;;;;;5073286;28;20040;-60
2023/04/10 11:02:26;;;;;;;5.13;4.63;;;24.40;29.50;;;;;;5089941;28;20051;-61
2023/04/10 11:04:54;;;;;;;4.60;4.20;;;24.40;29.40;;;;;;5093876;28;20059;-60
2023/04/10 11:08:00;;;;;;;5.47;4.60;;;24.40;29.40;;;;;;5093574;28;20058;-60
2023/04/10 11:11:07;;;;;;;4.97;4.30;;;24.50;29.40;;;;;;5093379;28;20135;-60
2023/04/10 11:13:40;;;;;;;5.68;4.80;;;24.50;29.30;;;;;;5093492;28;20512;-60
2023/04/10 11:16:09;;;;;;;5.40;4.90;;;24.60;29.30;;;;;;5093427;28;20048;-60
2023/04/10 11:19:03;;;;;;;5.28;4.57;;;24.60;29.20;;;;;;5093288;28;20484;-60
2023/04/10 11:22:03;;;;;;;5.75;5.10;;;24.60;29.20;;;;;;5092354;28;20048;-60
2023/04/10 11:24:51;;;;;;;4.88;4.45;;;24.60;29.10;;;;;;5093366;28;20091;-60
2023/04/10 11:27:40;;;;;;;5.50;4.88;;;24.60;29.20;;;;;;5093186;28;20464;-60
2023/04/10 11:30:32;;;;;;;5.25;4.20;;;24.60;29.20;;;;;;5093259;28;20098;-60
2023/04/10 11:33:01;;;;;;;4.97;4.47;;;24.60;29.20;;;;;;5092692;28;20052;-61
2023/04/10 11:35:30;;;;;;;5.30;4.78;;;24.60;29.10;;;;;;5093555;28;20052;-60
2023/04/10 11:38:13;;;;;;;6.05;4.55;;;24.70;29.10;;;;;;5092872;28;20512;-60
2023/04/10 11:40:55;;;;;;;5.63;4.57;;;24.70;29.10;;;;;;5093474;28;20051;-60
2023/04/10 11:43:22;;;;;;;5.22;4.72;;;24.70;29.10;;;;;;5092773;28;20059;-61
2023/04/10 11:45:49;;;;;;;5.18;4.68;;;24.80;29.00;;;;;;5093226;28;20044;-61
2023/04/10 11:48:17;;;;;;;5.60;4.65;;;24.80;28.90;;;;;;5091877;28;20094;-60
2023/04/10 11:50:44;;;;;;;5.38;4.40;;;24.80;28.90;;;;;;5093232;28;20067;-60
2023/04/10 11:53:19;;;;;;;5.32;4.78;;;24.80;28.90;;;;;;5093249;28;20048;-60
2023/04/10 11:55:46;;;;;;;6.25;5.28;;;24.90;28.90;;;;;;5092965;28;20048;-61
2023/04/10 11:58:29;;;;;;;4.75;4.30;;;24.90;28.90;;;;;;5092903;28;20510;-61
2023/04/10 12:01:03;;;;;;;5.18;4.20;;;24.90;28.90;;;;;;5091791;28;20519;-61
2023/04/10 12:03:37;;;;;;;5.75;5.15;;;24.90;28.90;;;;;;5092548;28;20040;-60
2023/04/10 12:06:09;;;;;;;5.60;4.80;;;24.90;28.90;;;;;;5093122;28;20052;-61
2023/04/10 12:08:40;;;;;;;5.03;4.55;;;24.90;28.90;;;;;;5095023;28;20507;-61
2023/04/10 12:11:09;;;;;;;5.25;4.75;;;24.90;28.90;;;;;;5095678;28;20143;-61
2023/04/10 12:13:37;;;;;;;4.40;4.00;;;24.90;28.90;;;;;;5096508;28;20557;-61
2023/04/10 12:16:08;;;;;;;5.35;4.82;;;24.90;28.90;;;;;;5097128;28;20408;-61
2023/04/10 12:18:36;;;;;;;4.95;4.45;;;24.90;28.80;;;;;;5096781;28;20066;-60
2023/04/10 12:21:04;;;;;;;5.68;5.07;;;24.90;28.70;;;;;;5096569;28;20047;-61
2023/04/10 12:23:37;;;;;;;5.45;4.82;;;24.90;28.70;;;;;;5096578;28;20055;-60
2023/04/10 12:26:16;;;;;;;5.32;4.82;;;24.90;28.70;;;;;;5095730;28;20079;-61
2023/04/10 12:28:53;;;;;;;4.82;4.32;;;25.00;28.70;;;;;;5096935;28;20083;-60
2023/04/10 12:31:32;;;;;;;5.78;4.65;;;25.00;28.60;;;;;;5096795;28;20050;-60
2023/04/10 12:34:01;;;;;;;4.65;4.18;;;25.00;28.60;;;;;;5096315;28;20489;-61
2023/04/10 12:36:31;;;;;;;5.70;4.75;;;25.00;28.60;;;;;;5096275;28;20055;-60
2023/04/10 12:39:01;;;;;;;6.10;4.88;;;25.00;28.60;;;;;;5094730;28;20048;-61
2023/04/10 12:41:31;;;;;;;6.13;5.15;;;25.00;28.60;;;;;;5096582;28;20044;-60
2023/04/10 12:44:12;;;;;;;5.50;5.00;;;24.90;28.60;;;;;;5096090;28;20040;-61
2023/04/10 12:46:41;;;;;;;5.13;4.63;;;24.90;28.60;;;;;;5096500;28;20148;-60
2023/04/10 12:49:15;;;;;;;5.18;4.68;;;24.90;28.60;;;;;;5096546;28;20415;-60
2023/04/10 12:51:50;;;;;;;5.15;4.47;;;24.90;28.60;;;;;;5093240;28;20484;-60
2023/04/10 12:54:32;;;;;;;4.85;4.35;;;24.90;28.60;;;;;;5094901;28;20127;-60
2023/04/10 12:57:00;;;;;;;10.00;5.38;;;25.00;28.60;;;;;;5095931;28;20059;-61
2023/04/10 12:59:29;;;;;;;5.18;4.63;;;25.00;28.60;;;;;;5095808;28;20496;-60
2023/04/10 13:01:56;;;;;;;5.72;5.03;;;25.00;28.50;;;;;;5095379;28;20126;-60
2023/04/10 13:04:23;;;;;;;5.53;4.97;;;25.00;28.50;;;;;;5096257;28;20055;-61